Time;durP1;ratioP1;P1;durP2;ratioP2;P2;SDS_P1;SDS_P2;PMS_P1;PMS_P2;Temp;Humidity;BMP_temperature;BMP_pressure;BME280_temperature;BME280_humidity;BME280_pressure;Samples;Min_cycle;Max_cycle;Signal;HPM_P1;HPM_P2
2022/08/30 00:02:04;;;;;;;4.95;1.50;;;17.50;99.90;;;;;;5012796;28;20477;-59
2022/08/30 00:04:31;;;;;;;4.88;1.15;;;17.50;99.90;;;;;;5013077;28;20100;-61
2022/08/30 00:06:58;;;;;;;4.63;1.73;;;17.50;99.90;;;;;;4995706;28;20045;-59
2022/08/30 00:09:25;;;;;;;5.80;1.20;;;17.50;99.90;;;;;;5009888;28;20104;-58
2022/08/30 00:11:52;;;;;;;6.05;1.55;;;17.40;99.90;;;;;;4662711;28;10000572;-59
2022/08/30 00:14:19;;;;;;;5.78;1.92;;;17.40;99.90;;;;;;4990395;28;20054;-59
2022/08/30 00:16:46;;;;;;;2.58;1.30;;;17.30;99.90;;;;;;4991627;28;20046;-59
2022/08/30 00:19:12;;;;;;;7.03;1.80;;;17.30;99.90;;;;;;4992758;28;20050;-58
2022/08/30 00:21:39;;;;;;;7.38;1.48;;;17.20;99.90;;;;;;4992834;28;20054;-59
2022/08/30 00:24:06;;;;;;;7.80;2.35;;;17.20;99.90;;;;;;4992774;28;20046;-58
2022/08/30 00:26:33;;;;;;;6.55;1.88;;;17.20;99.90;;;;;;4991295;28;20081;-58
2022/08/30 00:29:00;;;;;;;7.18;2.78;;;17.20;99.90;;;;;;4991596;28;20070;-58
2022/08/30 00:31:27;;;;;;;6.90;1.73;;;17.20;99.90;;;;;;4992615;28;20537;-59
2022/08/30 00:33:54;;;;;;;3.05;1.50;;;17.20;99.90;;;;;;4991262;28;20145;-59
2022/08/30 00:36:20;;;;;;;10.85;1.98;;;17.10;99.90;;;;;;4992637;28;20054;-58
2022/08/30 00:38:47;;;;;;;3.38;1.42;;;17.10;99.90;;;;;;4992311;28;20154;-58
2022/08/30 00:41:14;;;;;;;5.60;2.42;;;17.10;99.90;;;;;;4992486;28;20055;-59
2022/08/30 00:43:41;;;;;;;10.82;1.98;;;17.10;99.90;;;;;;4991517;28;20125;-58
2022/08/30 00:46:09;;;;;;;4.13;1.42;;;17.10;99.90;;;;;;4992079;28;20046;-58
2022/08/30 00:48:42;;;;;;;5.97;1.60;;;17.10;99.90;;;;;;4991971;28;20149;-58
2022/08/30 00:51:10;;;;;;;3.55;1.52;;;17.10;99.90;;;;;;4989985;28;20054;-57
2022/08/30 00:53:39;;;;;;;5.20;2.75;;;17.10;99.90;;;;;;4958848;28;20078;-59
2022/08/30 00:56:06;;;;;;;6.97;1.60;;;17.00;99.90;;;;;;4982630;28;20082;-59
2022/08/30 00:58:35;;;;;;;3.92;1.67;;;17.00;99.90;;;;;;4994819;28;20112;-59
2022/08/30 01:01:02;;;;;;;7.57;1.83;;;17.00;99.90;;;;;;4994791;28;20530;-59
2022/08/30 01:03:29;;;;;;;7.13;1.95;;;17.00;99.90;;;;;;4994710;28;20502;-59
2022/08/30 01:05:57;;;;;;;4.68;1.83;;;17.00;99.90;;;;;;4996419;28;20057;-59
2022/08/30 01:08:26;;;;;;;5.25;1.75;;;17.00;99.90;;;;;;4963290;28;20093;-59
2022/08/30 01:10:53;;;;;;;6.20;1.65;;;17.00;99.90;;;;;;4995776;28;20108;-59
2022/08/30 01:13:21;;;;;;;4.15;1.52;;;16.90;99.90;;;;;;4994114;28;20113;-59
2022/08/30 01:15:50;;;;;;;6.93;1.80;;;16.90;99.90;;;;;;4978680;28;20105;-59
2022/08/30 01:18:18;;;;;;;5.18;1.80;;;16.90;99.90;;;;;;4979276;28;20504;-60
2022/08/30 01:21:10;;;;;;;9.57;2.33;;;16.90;99.90;;;;;;4979108;28;20150;-60
2022/08/30 01:23:39;;;;;;;8.75;1.98;;;16.90;99.90;;;;;;4994495;28;20132;-60
2022/08/30 01:26:06;;;;;;;6.45;1.85;;;16.90;99.90;;;;;;4978695;28;20050;-60
2022/08/30 01:28:33;;;;;;;5.82;1.45;;;16.90;99.90;;;;;;4995731;28;20050;-59
2022/08/30 01:31:00;;;;;;;10.95;2.42;;;16.90;99.90;;;;;;4994668;28;20414;-60
2022/08/30 01:33:27;;;;;;;10.88;2.28;;;16.90;99.90;;;;;;4995947;28;20527;-60
2022/08/30 01:35:59;;;;;;;7.80;1.63;;;16.80;99.90;;;;;;4994599;28;20074;-60
2022/08/30 01:38:34;;;;;;;3.35;1.70;;;16.80;99.90;;;;;;4995525;28;20085;-60
2022/08/30 01:41:15;;;;;;;4.97;1.80;;;16.80;99.90;;;;;;4979151;28;20085;-60
2022/08/30 01:43:42;;;;;;;7.10;1.63;;;16.80;99.90;;;;;;4984141;28;20077;-60
2022/08/30 01:46:10;;;;;;;5.68;1.60;;;16.70;99.90;;;;;;4978281;28;20050;-60
2022/08/30 01:48:38;;;;;;;10.88;1.80;;;16.70;99.90;;;;;;4995524;28;20109;-59
2022/08/30 01:51:05;;;;;;;7.47;1.80;;;16.80;99.90;;;;;;4995472;28;20085;-60
2022/08/30 01:53:32;;;;;;;8.38;1.50;;;16.80;99.90;;;;;;4994216;28;20505;-60
2022/08/30 01:55:59;;;;;;;3.53;1.15;;;16.80;99.90;;;;;;4994271;28;20050;-59
2022/08/30 01:58:27;;;;;;;5.47;1.73;;;16.80;99.90;;;;;;4993964;28;20070;-59
2022/08/30 02:00:54;;;;;;;6.63;1.75;;;16.80;99.90;;;;;;4994396;28;20065;-59
2022/08/30 02:03:21;;;;;;;9.57;1.80;;;16.80;99.90;;;;;;4981290;28;20114;-59
2022/08/30 02:05:48;;;;;;;6.07;2.30;;;16.70;99.90;;;;;;4999630;28;20046;-59
2022/08/30 02:08:15;;;;;;;6.28;2.05;;;16.70;99.90;;;;;;4995465;28;20085;-58
2022/08/30 02:10:42;;;;;;;4.03;1.33;;;16.70;99.90;;;;;;4994035;28;20046;-59
2022/08/30 02:13:08;;;;;;;4.25;1.45;;;16.70;99.90;;;;;;4996090;28;20486;-59
2022/08/30 02:15:39;;;;;;;6.65;1.52;;;16.70;99.90;;;;;;5014638;28;20625;-60
2022/08/30 02:18:09;;;;;;;4.68;1.73;;;16.70;99.90;;;;;;5009959;28;20046;-59
2022/08/30 02:20:38;;;;;;;5.22;1.50;;;16.70;99.90;;;;;;5014537;28;20580;-59
2022/08/30 02:23:05;;;;;;;3.70;1.58;;;16.70;99.90;;;;;;5013937;28;20042;-60
2022/08/30 02:25:32;;;;;;;3.55;1.30;;;16.70;99.90;;;;;;5014279;28;20559;-58
2022/08/30 02:27:58;;;;;;;4.32;1.70;;;16.60;99.90;;;;;;5013985;28;20038;-58
2022/08/30 02:30:25;;;;;;;5.65;1.58;;;16.70;99.90;;;;;;5014690;28;20045;-58
2022/08/30 02:32:52;;;;;;;4.95;1.60;;;16.70;99.90;;;;;;5013764;28;20081;-59
2022/08/30 02:35:19;;;;;;;5.93;1.40;;;16.60;99.90;;;;;;5013726;28;20114;-59
2022/08/30 02:37:46;;;;;;;6.90;1.33;;;16.60;99.90;;;;;;5014214;28;20038;-59
2022/08/30 02:40:13;;;;;;;3.75;1.48;;;16.60;99.90;;;;;;4996859;28;20049;-59
2022/08/30 02:42:40;;;;;;;27.75;2.03;;;16.60;99.90;;;;;;5012684;28;20413;-59
2022/08/30 02:45:07;;;;;;;4.75;1.85;;;16.50;99.90;;;;;;4996475;28;20053;-59
2022/08/30 02:47:34;;;;;;;7.85;1.63;;;16.50;99.90;;;;;;4980947;28;20104;-59
2022/08/30 02:50:03;;;;;;;5.50;2.00;;;16.50;99.90;;;;;;5014066;28;20042;-59
2022/08/30 02:52:30;;;;;;;3.30;1.52;;;16.40;99.90;;;;;;5013724;28;20050;-59
2022/08/30 02:54:58;;;;;;;6.53;1.35;;;16.40;99.90;;;;;;5013633;28;20057;-58
2022/08/30 02:57:25;;;;;;;8.18;1.75;;;16.40;99.90;;;;;;5013610;28;20394;-59
2022/08/30 02:59:52;;;;;;;6.35;1.65;;;16.40;99.90;;;;;;5013480;28;20042;-59
2022/08/30 03:02:21;;;;;;;4.38;1.30;;;16.30;99.90;;;;;;5013636;28;20119;-59
2022/08/30 03:04:48;;;;;;;9.90;3.85;;;16.20;99.90;;;;;;5013636;28;20472;-58
2022/08/30 03:07:15;;;;;;;6.53;1.73;;;16.20;99.90;;;;;;4995221;28;20552;-59
2022/08/30 03:09:42;;;;;;;6.97;1.98;;;16.20;99.90;;;;;;4996440;28;20042;-59
2022/08/30 03:12:09;;;;;;;5.32;1.30;;;16.20;99.90;;;;;;5013460;28;20540;-59
2022/08/30 03:14:36;;;;;;;4.43;1.90;;;16.10;99.90;;;;;;4979561;28;20054;-59
2022/08/30 03:17:06;;;;;;;6.22;1.67;;;16.10;99.90;;;;;;5013791;28;20042;-59
2022/08/30 03:19:41;;;;;;;8.30;1.45;;;16.00;99.90;;;;;;4996722;28;20110;-59
2022/08/30 03:22:09;;;;;;;6.00;2.10;;;16.00;99.90;;;;;;5013442;28;20505;-59
2022/08/30 03:24:36;;;;;;;5.22;1.42;;;16.00;99.90;;;;;;5013380;28;20073;-59
2022/08/30 03:27:03;;;;;;;6.55;1.50;;;16.00;99.90;;;;;;5013033;28;20073;-59
2022/08/30 03:29:29;;;;;;;5.80;2.13;;;16.00;99.90;;;;;;5013318;28;20057;-59
2022/08/30 03:31:56;;;;;;;5.72;1.70;;;16.00;99.90;;;;;;5013536;28;20116;-59
2022/08/30 03:34:24;;;;;;;10.00;1.92;;;15.90;99.90;;;;;;5011642;28;20042;-59
2022/08/30 03:36:51;;;;;;;9.68;1.92;;;15.90;99.90;;;;;;4980073;28;20066;-59
2022/08/30 03:39:18;;;;;;;7.45;1.42;;;16.00;99.90;;;;;;4995810;28;20045;-58
2022/08/30 03:41:45;;;;;;;6.03;1.50;;;15.90;99.90;;;;;;4995790;28;20405;-59
2022/08/30 03:44:12;;;;;;;4.00;1.45;;;15.90;99.90;;;;;;5013184;28;20108;-59
2022/08/30 03:46:38;;;;;;;3.88;1.35;;;15.90;99.90;;;;;;5013302;28;20046;-59
2022/08/30 03:49:05;;;;;;;4.78;1.40;;;15.90;99.90;;;;;;4995408;28;20045;-59
2022/08/30 03:51:32;;;;;;;9.52;2.60;;;15.90;99.90;;;;;;5012878;28;20085;-59
2022/08/30 03:54:01;;;;;;;4.90;1.67;;;15.90;99.90;;;;;;4979195;28;20049;-59
2022/08/30 03:56:28;;;;;;;4.32;1.52;;;15.90;99.90;;;;;;4995047;28;20050;-59
2022/08/30 03:58:55;;;;;;;7.40;2.17;;;15.90;99.90;;;;;;5012933;28;20045;-59
2022/08/30 04:01:22;;;;;;;9.77;2.45;;;15.90;99.90;;;;;;5013084;28;20501;-59
2022/08/30 04:03:49;;;;;;;6.25;1.60;;;15.90;99.90;;;;;;5002548;28;20050;-59
2022/08/30 04:06:15;;;;;;;6.60;1.77;;;15.90;99.90;;;;;;5004594;28;20092;-59
2022/08/30 04:08:44;;;;;;;9.60;1.90;;;15.80;99.90;;;;;;5012513;28;20038;-59
2022/08/30 04:11:13;;;;;;;4.13;1.30;;;15.80;99.90;;;;;;5001627;28;20042;-59
2022/08/30 04:13:40;;;;;;;6.82;2.28;;;15.80;99.90;;;;;;4995394;28;20066;-59
2022/08/30 04:16:07;;;;;;;4.07;1.60;;;15.80;99.90;;;;;;5013303;28;20069;-59
2022/08/30 04:18:34;;;;;;;6.32;1.20;;;15.70;99.90;;;;;;4995513;28;20064;-59
2022/08/30 04:21:02;;;;;;;6.65;1.35;;;15.80;99.90;;;;;;5012496;28;20077;-59
2022/08/30 04:23:29;;;;;;;6.25;1.58;;;15.70;99.90;;;;;;4995638;28;20046;-59
2022/08/30 04:25:56;;;;;;;5.05;1.35;;;15.70;99.90;;;;;;4995168;28;20081;-58
2022/08/30 04:28:22;;;;;;;5.80;1.40;;;15.70;99.90;;;;;;5012627;28;20485;-58
2022/08/30 04:30:49;;;;;;;10.05;2.47;;;15.70;99.90;;;;;;5012623;28;20073;-59
2022/08/30 04:33:16;;;;;;;5.43;1.80;;;15.70;99.90;;;;;;5012401;28;20583;-59
2022/08/30 04:35:45;;;;;;;5.07;1.73;;;15.70;99.90;;;;;;5007645;28;20046;-59
2022/08/30 04:38:12;;;;;;;11.25;1.90;;;15.60;99.90;;;;;;5014111;28;20046;-59
2022/08/30 04:40:43;;;;;;;4.85;1.50;;;15.60;99.90;;;;;;4997210;28;20509;-59
2022/08/30 04:43:11;;;;;;;6.50;1.80;;;15.60;99.90;;;;;;4997097;28;20092;-59
2022/08/30 04:45:39;;;;;;;8.43;1.48;;;15.60;99.90;;;;;;5014969;28;20045;-59
2022/08/30 04:48:06;;;;;;;8.73;2.97;;;15.60;99.90;;;;;;5012860;28;20575;-59
2022/08/30 04:50:33;;;;;;;5.40;1.67;;;15.60;99.90;;;;;;5012448;28;20038;-59
2022/08/30 04:53:00;;;;;;;4.05;1.88;;;15.60;99.90;;;;;;4995152;28;20073;-59
2022/08/30 04:55:27;;;;;;;7.97;3.60;;;15.60;99.90;;;;;;4994595;28;20092;-59
2022/08/30 04:57:54;;;;;;;7.47;2.03;;;15.60;99.90;;;;;;5012340;28;20061;-59
2022/08/30 05:00:20;;;;;;;8.88;2.10;;;15.70;99.90;;;;;;4998995;28;20093;-59
2022/08/30 05:02:48;;;;;;;6.80;1.70;;;15.80;99.90;;;;;;4999771;28;20092;-59
2022/08/30 05:08:01;;;;;;;6.40;2.55;;;15.80;99.90;;;;;;5003469;28;20046;-58
2022/08/30 05:10:28;;;;;;;6.40;2.58;;;15.90;99.90;;;;;;5002223;28;20050;-58
2022/08/30 05:12:55;;;;;;;7.38;1.95;;;15.90;99.90;;;;;;5019173;28;20096;-59
2022/08/30 05:15:22;;;;;;;7.65;1.50;;;15.90;99.90;;;;;;5018103;28;20056;-59
2022/08/30 05:17:49;;;;;;;5.65;1.55;;;15.90;99.90;;;;;;4984301;28;20045;-60
2022/08/30 05:20:16;;;;;;;6.43;2.38;;;15.90;99.90;;;;;;5017751;28;20477;-59
2022/08/30 05:22:49;;;;;;;9.52;2.10;;;16.00;99.90;;;;;;5001091;28;20096;-60
2022/08/30 05:25:27;;;;;;;7.82;1.85;;;16.00;99.90;;;;;;5002349;28;20084;-59
2022/08/30 05:27:54;;;;;;;8.55;2.78;;;16.10;99.90;;;;;;5002941;28;20116;-60
2022/08/30 05:30:22;;;;;;;7.30;1.90;;;16.10;99.90;;;;;;5020504;28;20419;-59
2022/08/30 05:32:49;;;;;;;10.27;1.55;;;16.20;99.90;;;;;;5015715;28;20354;-60
2022/08/30 05:35:16;;;;;;;5.78;1.95;;;16.20;99.90;;;;;;5012346;28;20042;-59
2022/08/30 05:37:46;;;;;;;4.97;2.55;;;16.20;99.90;;;;;;5012306;28;20082;-59
2022/08/30 05:40:16;;;;;;;5.93;1.92;;;16.30;99.90;;;;;;4978564;28;20092;-60
2022/08/30 05:42:43;;;;;;;4.82;1.92;;;16.30;99.90;;;;;;4996281;28;20042;-59
2022/08/30 05:45:11;;;;;;;8.10;1.90;;;16.30;99.90;;;;;;5015231;28;20482;-59
2022/08/30 05:47:38;;;;;;;9.23;1.75;;;16.30;99.90;;;;;;5014984;28;20100;-59
2022/08/30 05:50:06;;;;;;;8.60;2.05;;;16.40;99.90;;;;;;4996916;28;20092;-57
2022/08/30 05:52:36;;;;;;;7.65;1.80;;;16.40;99.90;;;;;;5014145;28;20037;-59
2022/08/30 05:55:04;;;;;;;3.92;1.42;;;16.50;99.90;;;;;;4996929;28;20513;-59
2022/08/30 05:57:32;;;;;;;6.53;1.75;;;16.40;99.90;;;;;;5014223;28;20069;-59
2022/08/30 06:00:03;;;;;;;9.13;1.80;;;16.50;99.90;;;;;;4996666;28;20408;-59
2022/08/30 06:02:30;;;;;;;8.65;2.13;;;16.50;99.90;;;;;;4996863;28;20042;-59
2022/08/30 06:04:56;;;;;;;9.73;2.33;;;16.50;99.90;;;;;;5013934;28;20529;-59
2022/08/30 06:07:25;;;;;;;6.68;1.80;;;16.50;99.90;;;;;;4996458;28;20103;-58
2022/08/30 06:09:52;;;;;;;10.73;1.88;;;16.60;99.90;;;;;;5013841;28;20452;-59
2022/08/30 06:12:19;;;;;;;8.10;1.85;;;16.60;99.90;;;;;;5013747;28;20049;-59
2022/08/30 06:14:45;;;;;;;13.23;2.63;;;16.60;99.90;;;;;;4967900;28;1339178;-59
2022/08/30 06:17:12;;;;;;;8.65;1.70;;;16.60;99.90;;;;;;5013257;28;20046;-59
2022/08/30 06:19:39;;;;;;;6.13;2.08;;;16.70;99.90;;;;;;5014858;28;20054;-59
2022/08/30 06:22:06;;;;;;;14.00;2.15;;;16.70;99.90;;;;;;4981083;28;20433;-60
2022/08/30 06:24:35;;;;;;;8.18;1.80;;;16.70;99.90;;;;;;4997108;28;20417;-59
2022/08/30 06:27:21;;;;;;;12.73;2.30;;;16.70;99.90;;;;;;4985946;28;20066;-59
2022/08/30 06:29:51;;;;;;;5.78;1.30;;;16.80;99.90;;;;;;5014224;28;20100;-58
2022/08/30 06:32:18;;;;;;;16.85;2.13;;;16.80;99.90;;;;;;5013916;28;20104;-60
2022/08/30 06:34:46;;;;;;;8.82;1.60;;;16.90;99.90;;;;;;4997910;28;20123;-59
2022/08/30 06:37:13;;;;;;;5.43;2.03;;;16.90;99.90;;;;;;5014259;28;20050;-59
2022/08/30 06:39:56;;;;;;;12.90;2.40;;;16.90;99.90;;;;;;5012309;28;20041;-58
2022/08/30 06:42:29;;;;;;;9.73;3.25;;;16.90;99.90;;;;;;5011354;28;20362;-58
2022/08/30 06:44:57;;;;;;;7.07;1.63;;;16.90;99.90;;;;;;4648897;28;10000483;-56
2022/08/30 06:47:24;;;;;;;6.55;1.77;;;17.00;99.90;;;;;;4975839;28;20074;-58
2022/08/30 06:49:50;;;;;;;11.23;3.33;;;17.00;99.90;;;;;;5010138;28;20042;-58
2022/08/30 06:52:17;;;;;;;8.50;2.13;;;17.00;99.90;;;;;;4976438;28;20057;-59
2022/08/30 06:54:44;;;;;;;5.65;1.85;;;17.00;99.90;;;;;;4991354;28;20046;-58
2022/08/30 06:57:11;;;;;;;9.75;2.40;;;17.00;99.90;;;;;;4991383;28;20525;-57
2022/08/30 06:59:38;;;;;;;7.35;1.73;;;17.10;99.90;;;;;;5009129;28;20143;-59
2022/08/30 07:02:05;;;;;;;6.35;1.40;;;17.10;99.90;;;;;;5009353;28;20076;-60
2022/08/30 07:04:32;;;;;;;7.80;1.83;;;17.20;99.90;;;;;;5008809;28;20382;-60
2022/08/30 07:06:59;;;;;;;14.35;2.10;;;17.20;99.90;;;;;;4991175;28;20413;-60
2022/08/30 07:09:26;;;;;;;8.55;1.90;;;17.30;99.90;;;;;;5007630;28;20088;-60
2022/08/30 07:11:54;;;;;;;8.02;2.25;;;17.30;99.90;;;;;;5009356;28;20046;-60
2022/08/30 07:14:21;;;;;;;7.57;2.58;;;17.30;99.90;;;;;;4988121;28;20445;-59
2022/08/30 07:16:48;;;;;;;16.65;3.15;;;17.40;99.90;;;;;;4987892;28;20516;-59
2022/08/30 07:19:17;;;;;;;14.07;2.80;;;17.40;99.90;;;;;;4988394;28;20407;-59
2022/08/30 07:21:47;;;;;;;8.82;2.60;;;17.40;99.90;;;;;;4987485;28;20050;-59
2022/08/30 07:24:14;;;;;;;7.72;1.98;;;17.40;99.90;;;;;;4988214;28;20058;-59
2022/08/30 07:26:46;;;;;;;5.22;1.80;;;17.50;99.90;;;;;;4988569;28;20577;-58
2022/08/30 07:29:13;;;;;;;9.95;2.20;;;17.60;99.90;;;;;;4988577;28;20129;-59
2022/08/30 07:31:40;;;;;;;9.55;2.20;;;17.70;99.90;;;;;;4989079;28;20054;-59
2022/08/30 07:34:07;;;;;;;11.93;2.88;;;17.80;99.90;;;;;;4982474;28;20172;-59
2022/08/30 07:36:35;;;;;;;7.57;1.60;;;17.80;99.90;;;;;;4987927;28;20093;-57
2022/08/30 07:39:03;;;;;;;7.68;2.58;;;17.90;99.90;;;;;;4987083;28;20437;-59
2022/08/30 07:41:33;;;;;;;6.00;1.83;;;17.90;99.90;;;;;;4988854;28;20100;-59
2022/08/30 07:44:00;;;;;;;5.57;1.50;;;18.00;99.90;;;;;;4968051;28;20097;-59
2022/08/30 07:46:27;;;;;;;4.68;1.60;;;18.00;99.90;;;;;;4985891;28;20506;-58
2022/08/30 07:48:54;;;;;;;11.55;2.72;;;18.00;99.90;;;;;;4988590;28;20082;-58
2022/08/30 07:51:23;;;;;;;9.20;1.88;;;18.10;99.90;;;;;;4988414;28;20065;-57
2022/08/30 07:53:50;;;;;;;8.77;2.05;;;18.10;99.90;;;;;;4987763;28;20140;-57
2022/08/30 07:56:17;;;;;;;7.75;2.30;;;18.10;99.90;;;;;;4986488;28;20506;-56
2022/08/30 07:58:44;;;;;;;13.93;1.98;;;18.20;99.90;;;;;;4987883;28;20086;-57
2022/08/30 08:01:11;;;;;;;9.98;1.80;;;18.20;99.90;;;;;;4988046;28;20572;-57
2022/08/30 08:03:39;;;;;;;6.63;1.98;;;18.30;99.90;;;;;;4988281;28;20496;-57
2022/08/30 08:06:07;;;;;;;10.50;2.60;;;18.30;99.90;;;;;;4985954;28;20058;-60
2022/08/30 08:08:34;;;;;;;10.82;2.08;;;18.50;99.90;;;;;;4985165;28;20560;-57
2022/08/30 08:11:15;;;;;;;8.43;1.75;;;18.50;99.90;;;;;;4986903;28;20129;-57
2022/08/30 08:13:43;;;;;;;7.75;2.28;;;18.60;99.90;;;;;;4991411;28;20579;-59
2022/08/30 08:16:20;;;;;;;7.63;2.00;;;18.60;99.90;;;;;;4986938;28;20046;-58
2022/08/30 08:18:47;;;;;;;12.32;3.20;;;18.70;99.90;;;;;;5005457;28;20090;-59
2022/08/30 08:21:14;;;;;;;9.27;2.38;;;18.80;99.90;;;;;;4988248;28;20092;-56
2022/08/30 08:23:41;;;;;;;5.20;2.55;;;18.80;99.90;;;;;;4990192;28;20112;-56
2022/08/30 08:26:08;;;;;;;14.95;2.00;;;18.90;99.90;;;;;;4990262;28;20073;-57
2022/08/30 08:28:35;;;;;;;9.23;2.25;;;18.90;99.90;;;;;;5007242;28;20050;-58
2022/08/30 08:31:02;;;;;;;9.85;2.38;;;19.00;99.90;;;;;;4989738;28;20065;-58
2022/08/30 08:33:29;;;;;;;10.40;2.33;;;19.10;99.90;;;;;;4990261;28;20420;-59
2022/08/30 08:35:56;;;;;;;13.85;3.00;;;19.20;99.90;;;;;;5007887;28;20108;-59
2022/08/30 08:38:22;;;;;;;19.60;4.53;;;19.20;99.90;;;;;;4990508;28;20054;-58
2022/08/30 08:41:01;;;;;;;15.70;3.45;;;19.20;99.90;;;;;;4990179;28;20396;-59
2022/08/30 08:43:32;;;;;;;10.18;2.13;;;19.30;99.90;;;;;;4988606;28;20081;-59
2022/08/30 08:46:14;;;;;;;14.27;2.58;;;19.40;99.90;;;;;;4971273;28;20112;-57
2022/08/30 08:48:50;;;;;;;8.73;2.10;;;19.40;99.90;;;;;;5004516;28;20481;-58
2022/08/30 08:54:24;;;;;;;6.53;1.80;;;19.40;99.90;;;;;;5006680;28;20064;-57
2022/08/30 08:56:51;;;;;;;12.55;2.55;;;19.40;99.90;;;;;;4989836;28;20053;-59
2022/08/30 08:59:18;;;;;;;14.40;2.15;;;19.40;99.90;;;;;;4990709;28;20050;-58
2022/08/30 09:01:45;;;;;;;12.18;2.28;;;19.40;99.90;;;;;;5007686;28;20042;-59
2022/08/30 09:04:25;;;;;;;5.95;2.30;;;19.40;99.90;;;;;;4990668;28;20145;-58
2022/08/30 09:07:23;;;;;;;9.00;2.15;;;19.50;99.90;;;;;;4991654;28;20108;-57
2022/08/30 09:09:50;;;;;;;13.57;2.22;;;19.50;99.90;;;;;;4981859;28;20112;-58
2022/08/30 09:12:17;;;;;;;13.65;2.22;;;19.60;99.90;;;;;;5010957;28;20078;-59
2022/08/30 09:14:46;;;;;;;11.80;1.90;;;19.60;99.90;;;;;;4990849;28;20054;-59
2022/08/30 09:17:14;;;;;;;9.95;2.10;;;19.70;99.90;;;;;;4991802;28;20060;-58
2022/08/30 09:19:55;;;;;;;7.00;1.88;;;19.80;99.90;;;;;;4978719;28;20049;-58
2022/08/30 09:22:27;;;;;;;11.57;2.60;;;19.80;99.90;;;;;;4994295;28;20054;-57
2022/08/30 09:25:21;;;;;;;6.00;2.00;;;19.80;99.90;;;;;;4978128;28;20050;-59
2022/08/30 09:27:49;;;;;;;6.63;1.95;;;20.10;99.90;;;;;;4994395;28;20045;-58
2022/08/30 09:30:19;;;;;;;10.95;1.70;;;20.20;99.90;;;;;;4973983;28;20552;-58
2022/08/30 09:32:56;;;;;;;10.32;2.55;;;20.30;99.90;;;;;;4993939;28;20453;-59
2022/08/30 09:35:37;;;;;;;11.43;1.95;;;20.40;99.90;;;;;;4990940;28;20119;-59
2022/08/30 09:38:09;;;;;;;6.60;1.70;;;20.60;99.90;;;;;;4993324;28;20498;-58
2022/08/30 09:40:58;;;;;;;13.13;2.08;;;20.80;99.90;;;;;;4980863;28;20077;-57
2022/08/30 09:43:27;;;;;;;12.75;3.17;;;21.00;99.90;;;;;;5011846;28;20077;-58
2022/08/30 09:46:02;;;;;;;9.90;1.95;;;21.00;99.90;;;;;;4994988;28;20451;-58
2022/08/30 09:48:39;;;;;;;8.35;2.30;;;21.20;99.90;;;;;;5012202;28;20038;-58
2022/08/30 09:51:09;;;;;;;10.15;2.45;;;21.40;99.90;;;;;;4994042;28;20045;-58
2022/08/30 09:54:04;;;;;;;4.90;1.63;;;21.70;99.90;;;;;;4994827;28;20049;-58
2022/08/30 09:57:11;;;;;;;10.13;1.88;;;22.00;99.90;;;;;;5009561;28;20068;-58
2022/08/30 09:59:59;;;;;;;12.98;2.70;;;22.00;99.90;;;;;;4996437;28;20042;-58
2022/08/30 10:02:45;;;;;;;3.92;1.67;;;22.30;99.90;;;;;;4992991;28;20417;-58
2022/08/30 10:05:23;;;;;;;13.70;1.80;;;22.70;99.90;;;;;;4994099;28;20069;-58
2022/08/30 10:08:22;;;;;;;10.55;1.85;;;22.80;99.90;;;;;;5011195;28;20050;-59
2022/08/30 10:10:55;;;;;;;7.00;2.03;;;22.90;99.90;;;;;;5000422;28;20381;-59
2022/08/30 10:13:55;;;;;;;9.63;2.50;;;23.00;99.90;;;;;;4994237;28;20050;-59
2022/08/30 10:16:25;;;;;;;6.90;1.73;;;22.80;99.90;;;;;;5009951;28;20076;-59
2022/08/30 10:19:07;;;;;;;5.63;2.30;;;22.60;99.90;;;;;;5012085;28;20054;-59
2022/08/30 10:21:38;;;;;;;9.88;2.13;;;22.40;99.90;;;;;;5006389;28;20077;-58
2022/08/30 10:24:17;;;;;;;9.85;2.30;;;22.30;99.90;;;;;;4991766;28;20440;-58
2022/08/30 10:27:11;;;;;;;7.75;1.98;;;22.30;99.90;;;;;;4994714;28;20421;-60
2022/08/30 10:30:05;;;;;;;13.20;2.42;;;22.30;99.90;;;;;;4995448;28;20064;-60
2022/08/30 10:32:34;;;;;;;;;;;22.10;99.90;;;;;;4995071;28;20046;-58
2022/08/30 10:35:11;;;;;;;7.70;1.83;;;22.00;99.90;;;;;;4994018;28;20250;-58
2022/08/30 10:38:00;;;;;;;7.97;2.22;;;22.20;99.90;;;;;;4984601;28;20434;-57
2022/08/30 10:43:40;;;;;;;6.30;1.60;;;22.40;99.90;;;;;;4994560;28;20049;-58
2022/08/30 10:46:10;;;;;;;7.65;3.30;;;22.40;99.90;;;;;;4978786;28;20061;-59
2022/08/30 10:48:40;;;;;;;6.78;1.70;;;22.40;99.90;;;;;;4992709;28;20483;-60
2022/08/30 10:51:42;;;;;;;9.03;1.73;;;22.40;99.90;;;;;;5019318;28;20410;-59
2022/08/30 10:54:31;;;;;;;6.88;2.17;;;22.50;99.90;;;;;;5011060;28;20329;-59
2022/08/30 10:56:58;;;;;;;9.20;3.03;;;22.60;99.90;;;;;;4996269;28;20452;-59
2022/08/30 10:59:25;;;;;;;4.93;1.70;;;22.60;99.90;;;;;;4982727;28;20045;-59
2022/08/30 11:02:12;;;;;;;6.53;2.35;;;22.70;99.90;;;;;;4998759;28;20593;-60
2022/08/30 11:04:45;;;;;;;10.13;2.35;;;22.60;98.40;;;;;;5014850;28;20136;-60
2022/08/30 11:07:31;;;;;;;14.60;3.67;;;22.50;99.90;;;;;;5016451;28;20200;-60
2022/08/30 11:10:17;;;;;;;15.30;2.90;;;22.40;98.80;;;;;;5010017;28;20288;-59
2022/08/30 11:13:04;;;;;;;10.02;2.65;;;22.40;99.40;;;;;;5011209;28;20489;-59
2022/08/30 11:15:34;;;;;;;8.57;2.97;;;22.50;98.70;;;;;;4996003;28;20046;-60
2022/08/30 11:18:08;;;;;;;5.22;2.10;;;22.50;99.20;;;;;;5008459;28;20093;-60
2022/08/30 11:20:49;;;;;;;4.05;1.85;;;22.50;98.50;;;;;;4995243;28;20050;-59
2022/08/30 11:23:25;;;;;;;9.05;2.17;;;22.50;97.80;;;;;;4979259;28;20100;-55
2022/08/30 11:26:12;;;;;;;8.43;2.40;;;22.60;98.20;;;;;;4968075;28;20486;-59
2022/08/30 11:28:46;;;;;;;10.50;1.98;;;22.70;96.40;;;;;;4995383;28;20046;-60
2022/08/30 11:31:21;;;;;;;5.28;1.88;;;22.90;98.20;;;;;;5014542;28;20480;-58
2022/08/30 11:33:58;;;;;;;7.35;1.95;;;23.00;95.90;;;;;;5011791;28;20080;-60
2022/08/30 11:36:30;;;;;;;12.27;2.97;;;23.00;95.00;;;;;;4994433;28;20095;-59
2022/08/30 11:39:07;;;;;;;5.07;2.38;;;23.00;95.90;;;;;;4660839;28;10000073;-59
2022/08/30 11:41:45;;;;;;;5.35;2.00;;;23.00;94.70;;;;;;5004595;28;20050;-60
2022/08/30 11:44:27;;;;;;;13.57;2.55;;;23.00;94.30;;;;;;4991677;28;20491;-58
2022/08/30 11:46:57;;;;;;;10.15;1.63;;;23.20;92.40;;;;;;5011605;28;20042;-59
2022/08/30 11:49:36;;;;;;;6.82;2.00;;;23.30;94.50;;;;;;4978607;28;20104;-58
2022/08/30 11:52:27;;;;;;;6.07;1.67;;;23.60;94.10;;;;;;4990923;28;20053;-59
2022/08/30 11:55:28;;;;;;;3.70;1.80;;;23.80;93.40;;;;;;4994665;28;20077;-59
2022/08/30 11:58:18;;;;;;;6.60;2.13;;;24.00;92.00;;;;;;5013897;28;20061;-58
2022/08/30 12:00:46;;;;;;;14.43;2.20;;;24.20;92.90;;;;;;5011052;28;20077;-59
2022/08/30 12:03:19;;;;;;;;;;;24.20;90.60;;;;;;4994834;28;20600;-59
2022/08/30 12:05:56;;;;;;;13.25;2.15;;;24.00;86.90;;;;;;4996200;28;19929;-60
2022/08/30 12:08:34;;;;;;;6.45;2.05;;;23.90;90.10;;;;;;5003766;28;20061;-58
2022/08/30 12:11:11;;;;;;;9.32;2.70;;;23.70;90.50;;;;;;5015035;28;20070;-59
2022/08/30 12:13:41;;;;;;;3.10;1.38;;;23.60;89.50;;;;;;5009572;28;20460;-58
2022/08/30 12:16:13;;;;;;;9.00;1.52;;;23.50;90.80;;;;;;5012141;28;20416;-59
2022/08/30 12:18:52;;;;;;;4.40;1.63;;;23.40;90.90;;;;;;5011976;28;20057;-59
2022/08/30 12:21:20;;;;;;;7.93;1.95;;;23.40;90.50;;;;;;4993191;28;20042;-59
2022/08/30 12:23:50;;;;;;;5.13;1.70;;;23.30;91.10;;;;;;5011173;28;20081;-60
2022/08/30 12:26:23;;;;;;;4.47;1.85;;;23.50;90.90;;;;;;5018320;28;20053;-61
2022/08/30 12:29:17;;;;;;;6.32;2.08;;;23.50;87.50;;;;;;5015013;28;20072;-60
2022/08/30 12:31:54;;;;;;;5.70;1.30;;;23.60;87.70;;;;;;5012715;28;20509;-60
2022/08/30 12:34:25;;;;;;;6.88;1.60;;;23.60;90.10;;;;;;5022306;28;20088;-61
2022/08/30 12:37:03;;;;;;;9.20;2.70;;;23.70;90.10;;;;;;5022890;28;20046;-60
2022/08/30 12:39:35;;;;;;;7.00;1.73;;;23.70;86.60;;;;;;5006160;28;20417;-60
2022/08/30 12:42:12;;;;;;;8.93;2.33;;;23.70;89.20;;;;;;4990959;28;20072;-60
2022/08/30 12:44:44;;;;;;;4.40;1.67;;;23.60;85.30;;;;;;5022437;28;20602;-60
2022/08/30 12:47:11;;;;;;;6.95;1.85;;;23.50;88.20;;;;;;5006953;28;20088;-59
2022/08/30 12:49:40;;;;;;;8.05;2.35;;;23.50;87.50;;;;;;4990379;28;20053;-59
2022/08/30 12:52:27;;;;;;;12.65;1.77;;;23.30;87.00;;;;;;5004082;28;20073;-60
2022/08/30 12:54:55;;;;;;;10.73;1.90;;;23.30;83.30;;;;;;5020794;28;20046;-60
2022/08/30 12:57:55;;;;;;;14.30;2.35;;;23.20;87.20;;;;;;5020865;28;20046;-60
2022/08/30 13:00:29;;;;;;;;;;;23.20;83.20;;;;;;5020538;28;20046;-59
2022/08/30 13:02:58;;;;;;;9.15;1.70;;;23.20;82.30;;;;;;5022661;28;19925;-59
2022/08/30 13:05:41;;;;;;;16.73;2.03;;;23.20;85.90;;;;;;5021842;28;20050;-59
2022/08/30 13:08:20;;;;;;;7.25;1.75;;;23.10;82.60;;;;;;5020490;28;20108;-59
2022/08/30 13:10:55;;;;;;;5.57;1.75;;;23.00;84.00;;;;;;5005018;28;20080;-58
2022/08/30 13:13:26;;;;;;;7.35;2.03;;;23.00;84.00;;;;;;5021856;28;20162;-59
2022/08/30 13:15:53;;;;;;;16.52;2.25;;;23.00;85.10;;;;;;5019156;28;20057;-58